createdAt,value
2018-12-03T00:02:14.057Z,92.5
2018-12-03T00:17:21.105Z,92.7
2018-12-03T00:32:38.738Z,92.7
2018-12-03T00:47:51.486Z,92.4
2018-12-03T01:03:03.564Z,92.8
2018-12-03T01:18:15.893Z,92.4
2018-12-03T01:33:28.444Z,92.8
2018-12-03T01:48:40.820Z,93.2
2018-12-03T02:03:53.257Z,93.3
2018-12-03T02:19:05.981Z,93
2018-12-03T02:34:14.271Z,93.1
2018-12-03T02:49:30.699Z,93.2
2018-12-03T03:04:43.148Z,93.3
2018-12-03T03:19:55.256Z,93.4
2018-12-03T03:35:07.804Z,93.4
2018-12-03T03:50:20.455Z,93.1
2018-12-03T04:05:33.334Z,93.1
2018-12-03T04:20:45.831Z,93.3
2018-12-03T04:35:58.168Z,93.8
2018-12-03T04:51:08.425Z,93.1
2018-12-03T05:06:23.435Z,93.6
2018-12-03T05:21:36.417Z,93.3
2018-12-03T05:36:48.739Z,92.9
2018-12-03T05:51:53.169Z,93.8
2018-12-03T06:07:14.352Z,94.2
2018-12-03T06:22:26.902Z,94.8
2018-12-03T06:37:39.601Z,95.4
2018-12-03T06:52:52.407Z,95.9
2018-12-03T07:08:04.028Z,96.5
2018-12-03T07:23:17.877Z,96.5
2018-12-03T07:38:30.627Z,96.3
2018-12-03T07:53:43.482Z,96.1
2018-12-03T08:08:48.641Z,95.6
2018-12-03T08:24:09.135Z,95.4
2018-12-03T08:39:22.124Z,94.7
2018-12-03T08:54:35.382Z,94.8
2018-12-03T09:09:48.032Z,94.8
2018-12-03T09:25:01.091Z,94.3
2018-12-03T09:40:14.488Z,93.6
2018-12-03T09:55:28.069Z,93.9
2018-12-03T10:10:41.391Z,93.6
2018-12-03T10:25:47.741Z,93.7
2018-12-03T10:41:09.751Z,90.4
2018-12-03T10:56:24.565Z,85
2018-12-03T11:11:40.873Z,77.6
2018-12-03T11:26:58.399Z,69.6
2018-12-03T11:42:06.601Z,65
2018-12-03T11:57:31.924Z,58.6
2018-12-03T12:12:49.053Z,54.7
2018-12-03T12:28:05.854Z,53.5
2018-12-03T12:43:22.626Z,56.9
2018-12-03T12:58:31.412Z,59.2
2018-12-03T13:13:55.067Z,61.9
2018-12-03T13:29:11.067Z,64.1
2018-12-03T13:44:27.211Z,62.8
2018-12-03T13:59:44.075Z,60.9
2018-12-03T14:14:55.263Z,64
2018-12-03T14:30:16.022Z,66
2018-12-03T14:45:32.039Z,66.6
2018-12-03T15:00:47.199Z,68.4
2018-12-03T15:16:02.375Z,69.1
2018-12-03T15:31:17.611Z,71.3
2018-12-03T15:46:32.691Z,74.1
2018-12-03T16:01:47.669Z,76
2018-12-03T16:17:02.752Z,77
2018-12-03T16:32:09.394Z,78.3
2018-12-03T16:47:32.485Z,79
2018-12-03T17:02:47.372Z,80
2018-12-03T17:18:01.911Z,81.4
2018-12-03T17:33:16.751Z,83
2018-12-03T17:48:28.407Z,83
2018-12-03T18:03:45.328Z,83.5
2018-12-03T18:18:59.935Z,83.2
2018-12-03T18:34:14.566Z,81.2
2018-12-03T18:49:19.172Z,79.7
2018-12-03T19:04:44.817Z,78.3
2018-12-03T19:19:59.300Z,78.6
2018-12-03T19:35:14.703Z,79.6
2018-12-03T19:50:29.049Z,80.7
2018-12-03T20:05:37.992Z,77.8
2018-12-03T20:20:59.107Z,79.6
2018-12-03T20:36:13.233Z,81.7
2018-12-03T20:51:27.653Z,81.8
2018-12-03T21:06:41.932Z,82.3
2018-12-03T21:21:55.615Z,83.7
2018-12-03T21:37:10.410Z,83.7
2018-12-03T21:52:24.765Z,85.3
2018-12-03T22:07:39.232Z,82.4
2018-12-03T22:22:44.054Z,83.2
2018-12-03T22:38:07.520Z,83.8
2018-12-03T22:53:21.484Z,84.2
2018-12-03T23:08:35.974Z,84.4
2018-12-03T23:23:49.539Z,84.8
2018-12-03T23:39:00.483Z,84.6
2018-12-03T23:51:22.314Z,85.2
